Time;durP1;ratioP1;P1;durP2;ratioP2;P2;SDS_P1;SDS_P2;PMS_P1;PMS_P2;Temp;Humidity;BMP_temperature;BMP_pressure;BME280_temperature;BME280_humidity;BME280_pressure;Samples;Min_cycle;Max_cycle;Signal;HPM_P1;HPM_P2
2022/03/24 00:01:07;;;;;;;2.27;1.83;;;6.70;94.50;;;;;;6094059;23;20409;-66
2022/03/24 00:03:34;;;;;;;1.73;1.73;;;6.50;94.90;;;;;;6120095;23;20447;-67
2022/03/24 00:06:01;;;;;;;2.50;2.07;;;6.30;95.20;;;;;;6119812;23;20397;-66
2022/03/24 00:08:29;;;;;;;4.20;1.80;;;6.00;95.90;;;;;;6120198;23;20776;-66
2022/03/24 00:10:56;;;;;;;4.47;2.10;;;5.90;96.70;;;;;;6120375;23;20404;-66
2022/03/24 00:13:23;;;;;;;2.43;2.03;;;6.00;96.40;;;;;;6120086;23;20414;-66
2022/03/24 00:15:50;;;;;;;8.30;2.40;;;6.00;96.10;;;;;;6119394;23;20421;-66
2022/03/24 00:18:17;;;;;;;2.33;1.80;;;6.00;96.20;;;;;;6094564;23;20784;-66
2022/03/24 00:20:44;;;;;;;2.90;2.37;;;6.10;95.80;;;;;;6119973;23;20423;-66
2022/03/24 00:23:11;;;;;;;2.40;1.50;;;5.90;96.80;;;;;;6119539;23;20446;-66
2022/03/24 00:25:40;;;;;;;2.57;2.00;;;5.80;97.50;;;;;;6120166;23;20480;-66
2022/03/24 00:28:08;;;;;;;2.50;1.87;;;5.90;97.40;;;;;;6119544;23;20403;-66
2022/03/24 00:30:35;;;;;;;2.33;1.70;;;6.00;96.70;;;;;;6119502;23;20483;-66
2022/03/24 00:33:02;;;;;;;1.83;1.73;;;6.20;97.00;;;;;;6119522;23;20419;-66
2022/03/24 00:35:29;;;;;;;3.80;2.00;;;6.30;96.20;;;;;;6119880;23;20408;-66
2022/03/24 00:37:55;;;;;;;2.73;2.53;;;6.20;96.10;;;;;;6119631;23;20410;-66
2022/03/24 00:40:22;;;;;;;1.90;1.80;;;6.00;96.40;;;;;;6119337;23;20907;-66
2022/03/24 00:42:52;;;;;;;3.00;2.17;;;5.60;98.00;;;;;;6119637;23;20775;-66
2022/03/24 00:45:20;;;;;;;1.87;1.87;;;5.40;98.00;;;;;;6119598;23;20416;-66
2022/03/24 00:47:47;;;;;;;3.97;2.73;;;5.30;98.00;;;;;;6119488;23;20417;-66
2022/03/24 00:50:15;;;;;;;3.73;2.27;;;5.30;98.00;;;;;;6119325;23;20495;-66
2022/03/24 00:52:45;;;;;;;3.50;1.90;;;5.30;98.00;;;;;;6119200;23;20500;-66
2022/03/24 00:55:13;;;;;;;2.90;1.73;;;5.10;98.00;;;;;;6115325;23;20417;-66
2022/03/24 00:57:40;;;;;;;2.30;2.10;;;5.00;98.00;;;;;;6119715;23;20730;-66
2022/03/24 01:00:12;;;;;;;1.97;1.53;;;5.00;98.00;;;;;;6117897;23;20424;-66
2022/03/24 01:02:39;;;;;;;3.47;2.33;;;5.00;98.00;;;;;;6119517;23;20408;-66
2022/03/24 01:05:07;;;;;;;3.83;2.40;;;4.90;98.00;;;;;;6119337;23;20428;-66
2022/03/24 01:07:34;;;;;;;5.03;2.33;;;5.10;98.00;;;;;;6119517;23;20503;-66
2022/03/24 01:10:01;;;;;;;2.47;2.10;;;5.10;98.00;;;;;;6119441;23;20416;-66
2022/03/24 01:12:28;;;;;;;4.03;2.93;;;5.30;98.00;;;;;;6093206;23;20433;-66
2022/03/24 01:14:56;;;;;;;4.77;2.80;;;5.00;98.00;;;;;;6119018;23;20429;-66
2022/03/24 01:17:25;;;;;;;1.63;1.57;;;5.10;98.00;;;;;;6119475;23;20853;-66
2022/03/24 01:19:52;;;;;;;2.50;2.23;;;5.20;98.00;;;;;;6119070;23;20927;-66
2022/03/24 01:22:19;;;;;;;2.37;2.10;;;5.30;98.00;;;;;;6119168;23;20733;-66
2022/03/24 01:24:47;;;;;;;1.87;1.87;;;5.30;98.00;;;;;;6118829;23;20504;-66
2022/03/24 01:27:14;;;;;;;2.13;1.70;;;5.30;98.00;;;;;;6119310;23;20506;-66
2022/03/24 01:29:41;;;;;;;1.70;1.60;;;5.30;98.00;;;;;;6121480;23;20416;-66
2022/03/24 01:32:09;;;;;;;3.77;2.40;;;5.20;98.00;;;;;;6095402;23;20414;-66
2022/03/24 01:34:37;;;;;;;2.90;1.47;;;5.00;98.00;;;;;;6120800;23;20492;-66
2022/03/24 01:37:05;;;;;;;2.27;2.07;;;4.70;98.00;;;;;;6120710;23;20415;-66
2022/03/24 01:39:33;;;;;;;5.20;2.43;;;4.50;98.00;;;;;;6120843;23;20469;-66
2022/03/24 01:42:00;;;;;;;2.70;2.03;;;4.40;98.00;;;;;;6121004;23;20733;-66
2022/03/24 01:44:28;;;;;;;3.70;2.23;;;4.30;98.00;;;;;;6120785;23;20483;-66
2022/03/24 01:47:00;;;;;;;2.47;2.30;;;4.40;98.00;;;;;;6120448;23;20429;-66
2022/03/24 01:49:28;;;;;;;1.83;1.73;;;4.60;98.00;;;;;;6120400;23;20433;-66
2022/03/24 01:51:57;;;;;;;1.40;1.30;;;4.60;98.00;;;;;;6120428;23;20423;-66
2022/03/24 01:54:27;;;;;;;2.20;2.03;;;4.50;98.00;;;;;;6120813;23;20641;-66
2022/03/24 01:56:54;;;;;;;2.23;2.10;;;4.70;98.00;;;;;;6120754;23;20401;-66
2022/03/24 01:59:21;;;;;;;2.50;2.00;;;4.70;98.00;;;;;;6120734;23;20474;-66
2022/03/24 02:01:49;;;;;;;2.77;2.17;;;4.60;98.00;;;;;;6120652;23;20404;-66
2022/03/24 02:04:16;;;;;;;1.47;1.30;;;4.50;98.00;;;;;;6094893;23;20807;-66
2022/03/24 02:06:43;;;;;;;1.83;1.60;;;4.40;98.00;;;;;;6120911;23;20769;-66
2022/03/24 02:09:13;;;;;;;3.73;1.53;;;4.30;98.00;;;;;;6120718;23;20403;-66
2022/03/24 02:11:40;;;;;;;2.43;1.93;;;4.20;98.00;;;;;;6120180;23;20405;-66
2022/03/24 02:14:08;;;;;;;2.07;1.63;;;4.10;98.00;;;;;;6120608;23;20444;-66
2022/03/24 02:16:38;;;;;;;4.00;2.87;;;4.20;98.00;;;;;;6094375;23;20408;-66
2022/03/24 02:19:13;;;;;;;1.30;1.23;;;4.00;98.00;;;;;;6120224;23;20974;-66
2022/03/24 02:21:41;;;;;;;2.70;2.20;;;4.10;98.00;;;;;;6120517;23;20415;-66
2022/03/24 02:24:12;;;;;;;2.40;2.20;;;4.00;98.00;;;;;;6094763;23;20454;-66
2022/03/24 02:26:42;;;;;;;2.17;2.00;;;4.20;98.00;;;;;;6120471;23;20726;-66
2022/03/24 02:29:11;;;;;;;6.80;2.30;;;4.10;98.00;;;;;;6120556;23;20786;-66
2022/03/24 02:31:40;;;;;;;2.37;1.83;;;4.00;98.00;;;;;;6095165;23;20886;-66
2022/03/24 02:36:52;;;;;;;2.73;2.37;;;4.00;98.00;;;;;;6120357;23;20395;-66
2022/03/24 02:39:21;;;;;;;5.27;2.90;;;4.00;98.00;;;;;;6120051;23;20482;-66
2022/03/24 02:41:50;;;;;;;2.80;2.23;;;4.10;98.00;;;;;;6120228;23;20910;-66
2022/03/24 02:44:18;;;;;;;1.47;1.43;;;4.20;98.00;;;;;;6120253;23;20532;-66
2022/03/24 02:46:46;;;;;;;1.60;1.53;;;4.40;98.00;;;;;;6120687;23;20430;-66
2022/03/24 02:49:13;;;;;;;2.37;1.63;;;4.50;98.00;;;;;;6119985;23;20434;-66
2022/03/24 02:51:41;;;;;;;2.80;2.50;;;4.50;98.00;;;;;;6120482;23;20694;-66
2022/03/24 02:54:08;;;;;;;2.27;1.80;;;4.50;98.00;;;;;;6120394;23;20444;-66
2022/03/24 02:56:37;;;;;;;1.77;1.60;;;4.10;98.00;;;;;;6120270;23;20503;-66
2022/03/24 02:59:06;;;;;;;1.47;1.43;;;3.90;98.00;;;;;;6120431;23;20400;-66
2022/03/24 03:01:37;;;;;;;2.43;1.93;;;3.80;98.00;;;;;;6120424;23;20400;-66
2022/03/24 03:04:05;;;;;;;1.60;1.50;;;4.00;98.00;;;;;;6120488;23;20462;-66
2022/03/24 03:06:33;;;;;;;2.23;1.47;;;3.90;98.00;;;;;;6120230;23;20416;-66
2022/03/24 03:09:01;;;;;;;2.23;1.43;;;3.70;98.00;;;;;;6094599;23;20438;-66
2022/03/24 03:11:30;;;;;;;1.40;1.40;;;3.50;98.00;;;;;;6094476;23;20462;-66
2022/03/24 03:13:59;;;;;;;3.30;2.10;;;3.50;98.00;;;;;;6120446;23;20453;-66
2022/03/24 03:16:26;;;;;;;3.00;1.87;;;3.50;98.00;;;;;;6120579;23;20491;-66
2022/03/24 03:18:55;;;;;;;4.40;2.33;;;3.30;98.00;;;;;;6120068;23;20420;-66
2022/03/24 03:21:25;;;;;;;1.97;1.73;;;3.20;98.00;;;;;;6119924;23;20908;-66
2022/03/24 03:23:52;;;;;;;2.60;2.43;;;3.10;98.00;;;;;;6095243;23;20925;-66
2022/03/24 03:26:20;;;;;;;2.03;1.80;;;3.10;98.00;;;;;;6120335;23;20941;-66
2022/03/24 03:28:47;;;;;;;2.00;1.83;;;3.00;98.00;;;;;;6120262;23;20419;-66
2022/03/24 03:31:15;;;;;;;1.60;1.43;;;2.90;98.00;;;;;;6119860;23;20420;-66
2022/03/24 03:33:42;;;;;;;4.60;2.90;;;3.00;98.00;;;;;;6120332;23;20423;-66
2022/03/24 03:36:09;;;;;;;2.40;1.30;;;3.20;98.00;;;;;;6120471;23;20415;-66
2022/03/24 03:38:36;;;;;;;1.30;1.23;;;3.40;98.00;;;;;;6120479;23;20473;-66
2022/03/24 03:41:03;;;;;;;1.90;1.80;;;3.40;98.00;;;;;;6120437;23;20760;-66
2022/03/24 03:43:32;;;;;;;1.57;1.47;;;3.20;98.00;;;;;;6119880;23;20533;-66
2022/03/24 03:46:01;;;;;;;1.37;1.27;;;3.00;98.00;;;;;;6119852;23;20922;-66
2022/03/24 03:48:29;;;;;;;1.70;1.20;;;2.90;98.00;;;;;;6119566;23;20518;-66
2022/03/24 03:50:57;;;;;;;1.40;1.20;;;2.90;98.00;;;;;;6120196;23;20432;-66
2022/03/24 03:53:24;;;;;;;1.53;1.40;;;3.00;98.00;;;;;;6095010;23;20496;-66
2022/03/24 03:55:53;;;;;;;1.70;1.57;;;2.90;98.00;;;;;;6120360;23;20473;-66
2022/03/24 03:58:20;;;;;;;1.57;1.47;;;2.80;98.00;;;;;;6120359;23;20429;-66
2022/03/24 04:00:59;;;;;;;1.30;1.30;;;2.90;98.00;;;;;;6120858;23;20929;-66
2022/03/24 04:03:27;;;;;;;4.50;2.53;;;2.80;98.00;;;;;;6120574;23;20431;-66
2022/03/24 04:05:58;;;;;;;2.07;1.57;;;2.80;98.00;;;;;;6120476;23;20408;-66
2022/03/24 04:08:25;;;;;;;2.20;1.63;;;3.00;98.00;;;;;;6119802;23;20408;-66
2022/03/24 04:10:52;;;;;;;1.90;1.83;;;2.90;98.00;;;;;;6120287;23;20450;-66
2022/03/24 04:13:21;;;;;;;2.00;1.77;;;2.80;98.00;;;;;;6120041;23;20405;-66
2022/03/24 04:15:51;;;;;;;2.70;2.10;;;2.80;98.00;;;;;;6120233;23;20465;-66
2022/03/24 04:18:22;;;;;;;1.80;1.60;;;2.80;98.00;;;;;;6120155;23;20403;-66
2022/03/24 04:20:50;;;;;;;4.57;2.43;;;2.80;98.00;;;;;;6120292;23;20430;-66
2022/03/24 04:23:19;;;;;;;2.17;2.03;;;2.80;98.00;;;;;;6120027;23;20866;-66
2022/03/24 04:25:47;;;;;;;1.83;1.57;;;2.70;98.00;;;;;;6129475;23;20537;-66
2022/03/24 04:28:15;;;;;;;1.80;1.53;;;2.70;98.00;;;;;;6120104;23;20491;-66
2022/03/24 04:30:43;;;;;;;1.40;1.30;;;2.70;98.00;;;;;;6120128;23;20530;-66
2022/03/24 04:33:11;;;;;;;1.30;1.20;;;2.70;98.00;;;;;;6119426;23;20423;-66
2022/03/24 04:35:39;;;;;;;2.43;1.93;;;2.50;98.00;;;;;;6119504;23;20428;-66
2022/03/24 04:38:07;;;;;;;2.37;1.40;;;2.50;98.00;;;;;;6119759;23;20902;-66
2022/03/24 04:40:36;;;;;;;3.60;2.07;;;2.70;98.00;;;;;;6119827;23;20419;-66
2022/03/24 04:43:04;;;;;;;1.77;1.47;;;2.80;98.00;;;;;;6119969;23;20502;-66
2022/03/24 04:45:32;;;;;;;1.43;1.37;;;2.90;98.00;;;;;;6119167;23;20457;-66
2022/03/24 04:48:00;;;;;;;2.43;1.90;;;2.80;98.00;;;;;;6119194;23;20427;-66
2022/03/24 04:50:27;;;;;;;1.40;1.27;;;2.70;98.00;;;;;;6119694;23;20895;-66
2022/03/24 04:52:55;;;;;;;2.53;2.20;;;2.60;98.00;;;;;;6128998;23;20453;-66
2022/03/24 04:55:22;;;;;;;2.03;1.63;;;2.50;98.00;;;;;;6093765;23;20433;-66
2022/03/24 04:57:50;;;;;;;2.40;2.20;;;2.40;98.00;;;;;;6119212;23;20456;-66
2022/03/24 05:00:18;;;;;;;3.00;2.50;;;2.60;98.00;;;;;;6119732;23;20408;-66
2022/03/24 05:02:46;;;;;;;1.83;1.73;;;2.70;98.00;;;;;;6119468;23;20448;-66
2022/03/24 05:05:13;;;;;;;3.40;2.60;;;2.80;98.00;;;;;;6120882;23;20976;-66
2022/03/24 05:07:41;;;;;;;1.50;1.40;;;2.60;98.00;;;;;;6120467;23;20417;-66
2022/03/24 05:10:09;;;;;;;3.40;2.80;;;2.50;98.00;;;;;;6120692;23;20748;-66
2022/03/24 05:12:40;;;;;;;2.30;1.87;;;2.30;98.00;;;;;;6120887;23;20459;-66
2022/03/24 05:15:11;;;;;;;1.70;1.60;;;2.30;98.00;;;;;;6120528;23;20422;-66
2022/03/24 05:17:38;;;;;;;2.57;2.10;;;2.30;98.00;;;;;;6120963;23;20411;-66
2022/03/24 05:20:07;;;;;;;1.63;1.50;;;2.20;98.00;;;;;;6121201;23;20447;-66
2022/03/24 05:22:35;;;;;;;1.50;1.43;;;2.20;98.00;;;;;;6095697;23;20455;-66
2022/03/24 05:25:03;;;;;;;1.70;1.63;;;2.10;98.00;;;;;;6120854;23;20517;-66
2022/03/24 05:27:30;;;;;;;1.80;1.70;;;2.20;98.00;;;;;;6120900;23;20739;-66
2022/03/24 05:29:57;;;;;;;2.13;1.97;;;2.20;98.00;;;;;;6095029;23;20420;-66
2022/03/24 05:32:27;;;;;;;1.20;1.10;;;2.20;98.00;;;;;;6120719;23;20434;-66
2022/03/24 05:34:54;;;;;;;1.90;1.40;;;2.30;98.00;;;;;;6120816;23;20459;-66
2022/03/24 05:37:22;;;;;;;4.60;2.13;;;2.40;98.00;;;;;;6120678;23;20397;-66
2022/03/24 05:39:50;;;;;;;1.53;1.43;;;2.50;98.00;;;;;;6120421;23;20419;-66
2022/03/24 05:42:17;;;;;;;5.57;2.43;;;2.60;98.00;;;;;;6094907;23;20418;-66
2022/03/24 05:44:44;;;;;;;1.40;1.37;;;2.60;98.00;;;;;;6120180;23;20450;-66
2022/03/24 05:47:11;;;;;;;1.67;1.40;;;2.70;98.00;;;;;;6120663;23;20787;-66
2022/03/24 05:49:40;;;;;;;1.40;1.40;;;2.80;98.00;;;;;;6120242;23;20438;-66
2022/03/24 05:52:08;;;;;;;2.30;1.90;;;2.90;98.00;;;;;;6094550;23;20683;-66
2022/03/24 05:54:37;;;;;;;1.20;1.20;;;2.90;98.00;;;;;;6120721;23;20417;-66
2022/03/24 05:57:04;;;;;;;6.50;2.33;;;3.00;98.00;;;;;;6119823;23;20457;-66
2022/03/24 05:59:31;;;;;;;2.97;1.60;;;3.00;98.00;;;;;;6120663;23;20426;-66
2022/03/24 06:01:59;;;;;;;1.83;1.67;;;3.10;98.00;;;;;;6120440;23;20967;-66
2022/03/24 06:04:29;;;;;;;2.47;1.97;;;3.20;98.00;;;;;;6120110;23;20545;-66
2022/03/24 06:06:58;;;;;;;1.70;1.40;;;3.20;98.00;;;;;;6120671;23;20762;-66
2022/03/24 06:09:27;;;;;;;1.80;1.73;;;3.30;98.00;;;;;;6094803;23;20521;-66
2022/03/24 06:11:56;;;;;;;1.50;1.37;;;3.40;98.00;;;;;;6095828;23;20406;-66
2022/03/24 06:14:25;;;;;;;2.40;2.20;;;3.30;98.00;;;;;;6120587;23;20468;-66
2022/03/24 06:16:52;;;;;;;2.27;2.13;;;3.40;98.00;;;;;;6120384;23;20440;-66
2022/03/24 06:19:19;;;;;;;2.13;1.80;;;3.00;98.00;;;;;;6120623;23;20506;-66
2022/03/24 06:21:47;;;;;;;1.50;1.47;;;2.80;98.00;;;;;;6120466;23;20419;-66
2022/03/24 06:24:15;;;;;;;1.47;1.40;;;2.70;98.00;;;;;;6120386;23;20426;-66
2022/03/24 06:26:42;;;;;;;2.43;2.23;;;2.70;98.00;;;;;;6120536;23;20418;-66
2022/03/24 06:29:11;;;;;;;2.37;2.17;;;2.70;98.00;;;;;;6120583;23;20407;-66
2022/03/24 06:31:38;;;;;;;2.23;2.03;;;2.60;98.00;;;;;;6120142;23;20398;-66
2022/03/24 06:34:05;;;;;;;1.43;1.37;;;2.70;98.00;;;;;;6120169;23;20448;-66
2022/03/24 06:36:32;;;;;;;2.00;1.87;;;2.70;98.00;;;;;;6120019;23;20936;-66
2022/03/24 06:38:58;;;;;;;1.53;1.50;;;2.90;98.00;;;;;;6120545;23;20398;-66
2022/03/24 06:41:27;;;;;;;2.43;1.90;;;3.10;98.00;;;;;;6120484;23;20791;-66
2022/03/24 06:43:56;;;;;;;1.87;1.77;;;3.30;98.00;;;;;;6120165;23;20403;-66
2022/03/24 06:46:23;;;;;;;2.80;1.87;;;3.60;98.00;;;;;;6094175;23;20497;-66
2022/03/24 06:48:50;;;;;;;1.57;1.50;;;3.70;98.00;;;;;;6120222;23;20745;-66
2022/03/24 06:51:18;;;;;;;2.60;1.53;;;3.70;98.00;;;;;;6120477;23;20419;-66
2022/03/24 06:53:47;;;;;;;1.87;1.70;;;3.70;98.00;;;;;;6120020;23;20418;-66
2022/03/24 06:56:14;;;;;;;3.10;1.97;;;3.90;98.00;;;;;;6119593;23;20458;-66
2022/03/24 06:58:46;;;;;;;1.77;1.67;;;4.00;98.00;;;;;;6120605;23;20717;-66
2022/03/24 07:01:13;;;;;;;2.13;1.93;;;4.20;98.00;;;;;;6120478;23;20403;-66
2022/03/24 07:03:41;;;;;;;2.70;2.17;;;4.10;98.00;;;;;;6120444;23;20481;-66
2022/03/24 07:06:09;;;;;;;2.13;1.63;;;4.20;98.00;;;;;;6120499;23;20810;-66
2022/03/24 07:08:36;;;;;;;1.77;1.67;;;4.30;98.00;;;;;;6094765;23;20776;-65
2022/03/24 07:11:03;;;;;;;3.10;1.60;;;4.30;98.00;;;;;;6120571;23;20393;-65
2022/03/24 07:13:31;;;;;;;4.30;1.90;;;4.30;98.00;;;;;;6094459;23;20509;-65
2022/03/24 07:16:00;;;;;;;2.30;1.60;;;4.50;98.00;;;;;;6120416;23;20404;-65
2022/03/24 07:18:27;;;;;;;4.30;2.20;;;4.60;98.00;;;;;;6120183;23;20421;-66
2022/03/24 07:20:54;;;;;;;2.90;2.60;;;4.90;98.00;;;;;;6120071;23;20933;-66
2022/03/24 07:23:21;;;;;;;2.43;2.20;;;5.10;98.00;;;;;;6119998;23;20895;-65
2022/03/24 07:25:48;;;;;;;2.80;2.57;;;5.20;98.00;;;;;;6119107;23;20933;-65
2022/03/24 07:28:15;;;;;;;5.23;3.20;;;5.20;98.00;;;;;;6119969;23;20481;-65
2022/03/24 07:30:43;;;;;;;2.37;2.17;;;5.30;98.00;;;;;;6120384;23;20409;-65
2022/03/24 07:33:11;;;;;;;3.60;2.03;;;5.30;98.00;;;;;;6119878;23;20484;-66
2022/03/24 07:35:38;;;;;;;2.33;1.40;;;5.40;98.00;;;;;;6120210;23;20460;-66
2022/03/24 07:38:07;;;;;;;1.60;1.47;;;5.50;98.00;;;;;;6119823;23;20409;-65
2022/03/24 07:40:34;;;;;;;2.77;2.27;;;5.60;98.00;;;;;;6120147;23;20414;-65
2022/03/24 07:43:02;;;;;;;1.50;1.50;;;5.80;98.00;;;;;;6094457;23;20401;-65
2022/03/24 07:45:30;;;;;;;4.07;2.60;;;6.00;98.00;;;;;;6120156;23;20430;-65
2022/03/24 07:48:13;;;;;;;3.40;2.40;;;6.20;98.00;;;;;;6120160;23;20941;-65
2022/03/24 07:50:43;;;;;;;3.13;2.60;;;6.50;98.00;;;;;;6120134;23;20731;-66
2022/03/24 07:53:39;;;;;;;6.40;2.57;;;6.70;98.00;;;;;;6120319;23;20420;-65
2022/03/24 07:56:06;;;;;;;2.03;1.93;;;6.90;98.00;;;;;;6119876;23;20943;-65
2022/03/24 07:58:33;;;;;;;3.70;3.13;;;7.00;98.00;;;;;;6094744;23;20746;-66
2022/03/24 08:01:01;;;;;;;3.27;1.90;;;7.10;98.00;;;;;;6120168;23;20478;-65
2022/03/24 08:03:29;;;;;;;4.00;2.33;;;7.30;98.00;;;;;;6118003;23;20917;-65
2022/03/24 08:05:56;;;;;;;2.93;1.90;;;7.50;98.00;;;;;;6118367;23;20468;-66
2022/03/24 08:08:23;;;;;;;2.57;1.93;;;7.70;98.00;;;;;;6119021;23;20490;-66
2022/03/24 08:10:51;;;;;;;1.90;1.80;;;7.80;97.60;;;;;;6119083;23;20592;-65
2022/03/24 08:13:20;;;;;;;3.50;2.20;;;8.00;97.00;;;;;;6118694;23;20407;-66
2022/03/24 08:15:49;;;;;;;3.73;1.40;;;8.10;96.90;;;;;;6118932;23;20458;-66
2022/03/24 08:18:17;;;;;;;2.80;2.00;;;8.20;95.80;;;;;;6093282;23;20925;-66
2022/03/24 08:20:47;;;;;;;2.40;1.77;;;8.30;95.70;;;;;;6092484;23;20420;-66
2022/03/24 08:23:14;;;;;;;2.17;1.77;;;8.50;95.50;;;;;;6118591;23;20867;-64
2022/03/24 08:25:44;;;;;;;5.33;2.73;;;8.70;95.20;;;;;;6118843;23;20459;-65
2022/03/24 08:28:12;;;;;;;2.83;2.10;;;8.90;95.50;;;;;;6093566;23;20438;-66
2022/03/24 08:30:39;;;;;;;2.47;2.30;;;9.10;93.60;;;;;;6118324;23;20420;-66
2022/03/24 08:33:06;;;;;;;2.27;2.07;;;9.20;93.30;;;;;;6118361;23;20427;-66
2022/03/24 08:35:34;;;;;;;2.20;2.00;;;9.20;93.50;;;;;;6118364;23;20421;-66
2022/03/24 08:38:02;;;;;;;3.23;2.90;;;9.30;93.70;;;;;;6118933;23;21023;-66
2022/03/24 08:40:32;;;;;;;1.60;1.50;;;9.40;93.10;;;;;;6119608;23;20416;-65
2022/03/24 08:42:59;;;;;;;2.13;2.00;;;9.60;93.00;;;;;;6119416;23;20789;-64
2022/03/24 08:45:35;;;;;;;4.20;2.67;;;9.80;92.00;;;;;;6119594;23;20473;-65
2022/03/24 08:48:02;;;;;;;3.03;2.30;;;10.10;92.30;;;;;;6119759;23;20405;-65
2022/03/24 08:50:29;;;;;;;2.70;1.80;;;10.30;90.90;;;;;;6119640;23;20433;-64
2022/03/24 08:52:56;;;;;;;5.63;3.50;;;10.60;89.90;;;;;;6119914;23;20481;-65
2022/03/24 08:55:25;;;;;;;2.90;1.97;;;10.70;87.60;;;;;;6119922;23;20399;-64
2022/03/24 08:57:53;;;;;;;3.53;2.17;;;10.70;85.30;;;;;;6093380;23;20430;-66
2022/03/24 09:00:20;;;;;;;5.77;2.87;;;10.90;86.30;;;;;;6119861;23;20418;-66
2022/03/24 09:02:48;;;;;;;7.73;4.50;;;11.20;86.20;;;;;;6119689;23;20424;-66
2022/03/24 09:05:16;;;;;;;4.00;2.30;;;11.40;86.30;;;;;;6120001;23;20430;-66
2022/03/24 09:07:44;;;;;;;5.00;2.13;;;11.50;85.70;;;;;;6120127;23;20419;-66
2022/03/24 09:10:12;;;;;;;6.40;3.10;;;11.70;84.30;;;;;;6119663;23;20471;-66
2022/03/24 09:12:44;;;;;;;2.50;1.90;;;12.00;84.00;;;;;;6119681;23;20416;-66
2022/03/24 09:15:12;;;;;;;2.40;2.07;;;12.30;83.30;;;;;;6120808;23;20411;-66
2022/03/24 09:17:40;;;;;;;3.13;2.97;;;12.60;81.40;;;;;;6120832;23;20966;-66
2022/03/24 09:20:10;;;;;;;3.57;1.93;;;12.80;80.30;;;;;;6120728;23;20426;-66
2022/03/24 09:22:45;;;;;;;5.30;2.50;;;12.90;80.10;;;;;;6120026;23;20870;-65
2022/03/24 09:25:15;;;;;;;3.10;2.20;;;13.00;79.70;;;;;;6093658;23;20428;-65
2022/03/24 09:27:45;;;;;;;4.70;2.90;;;13.30;79.60;;;;;;6119892;23;20403;-66
2022/03/24 09:30:14;;;;;;;3.97;3.17;;;13.60;79.30;;;;;;6119535;23;20452;-66
2022/03/24 09:32:41;;;;;;;5.27;3.40;;;13.80;77.50;;;;;;6120408;23;20699;-66
2022/03/24 09:35:09;;;;;;;4.60;2.77;;;13.90;76.90;;;;;;6119706;23;20456;-66
2022/03/24 09:37:36;;;;;;;4.33;3.10;;;14.10;76.60;;;;;;6120078;23;20423;-66
2022/03/24 09:40:06;;;;;;;3.60;2.60;;;14.30;76.50;;;;;;6119837;23;20436;-66
2022/03/24 09:42:34;;;;;;;7.60;3.70;;;14.40;74.70;;;;;;6119764;23;20436;-66
2022/03/24 09:45:05;;;;;;;4.60;3.30;;;14.60;73.10;;;;;;6119786;23;20413;-66
2022/03/24 09:47:35;;;;;;;2.77;2.20;;;14.70;74.60;;;;;;6119869;23;20467;-66
2022/03/24 09:50:04;;;;;;;4.93;3.93;;;14.90;74.80;;;;;;6120394;23;20756;-67
2022/03/24 09:52:31;;;;;;;2.80;2.10;;;15.10;72.40;;;;;;6119688;23;20911;-67
2022/03/24 09:54:59;;;;;;;6.83;3.00;;;15.30;73.90;;;;;;6119646;23;20448;-67
2022/03/24 09:57:26;;;;;;;6.00;3.60;;;15.50;72.10;;;;;;6119233;23;20882;-67
2022/03/24 09:59:53;;;;;;;6.57;3.70;;;15.70;71.80;;;;;;6119198;23;20495;-66
2022/03/24 10:02:22;;;;;;;6.20;3.80;;;15.90;70.30;;;;;;6093234;23;20508;-66
2022/03/24 10:04:52;;;;;;;6.50;2.80;;;16.00;68.80;;;;;;6119476;23;20420;-66
2022/03/24 10:07:23;;;;;;;9.90;4.00;;;16.20;68.60;;;;;;6119333;23;20795;-66
2022/03/24 10:09:53;;;;;;;6.77;4.60;;;16.50;68.90;;;;;;6119241;23;20704;-66
2022/03/24 10:12:26;;;;;;;5.20;3.47;;;16.70;67.10;;;;;;6119059;23;20887;-66
2022/03/24 10:15:01;;;;;;;4.70;3.43;;;17.00;63.70;;;;;;6119672;23;20496;-66
2022/03/24 10:17:29;;;;;;;4.97;2.67;;;17.20;64.10;;;;;;6119680;23;20745;-67
2022/03/24 10:19:58;;;;;;;6.07;2.87;;;17.30;65.10;;;;;;6119499;23;20904;-66
2022/03/24 10:22:33;;;;;;;4.70;3.07;;;17.50;65.60;;;;;;6119120;23;20499;-66
2022/03/24 10:25:01;;;;;;;5.93;3.60;;;17.70;62.70;;;;;;6092976;23;20459;-67
2022/03/24 10:27:29;;;;;;;5.33;3.17;;;17.80;61.20;;;;;;6119066;23;20931;-66
2022/03/24 10:29:59;;;;;;;9.47;3.43;;;17.90;60.70;;;;;;6119277;23;20881;-65
2022/03/24 10:32:33;;;;;;;7.20;3.87;;;18.10;59.40;;;;;;6119399;23;20452;-65
2022/03/24 10:35:13;;;;;;;7.50;3.50;;;18.30;60.30;;;;;;6119164;23;20405;-66
2022/03/24 10:37:49;;;;;;;7.03;3.10;;;18.60;62.00;;;;;;6119551;23;20452;-66
2022/03/24 10:40:16;;;;;;;5.77;3.23;;;18.80;59.10;;;;;;6119496;23;20455;-67
2022/03/24 10:42:43;;;;;;;6.67;3.40;;;18.90;61.60;;;;;;6119588;23;20424;-67
2022/03/24 10:45:14;;;;;;;5.77;3.43;;;19.10;62.00;;;;;;6119116;23;20425;-67
2022/03/24 10:47:50;;;;;;;6.53;4.13;;;19.30;60.60;;;;;;6119258;23;20543;-67
2022/03/24 10:50:42;;;;;;;4.57;3.10;;;19.30;58.70;;;;;;6119676;23;20476;-67
2022/03/24 10:53:11;;;;;;;11.97;4.47;;;19.50;62.00;;;;;;6119965;23;20402;-67
2022/03/24 10:55:50;;;;;;;5.10;3.50;;;19.70;58.60;;;;;;6120169;23;20398;-67
2022/03/24 10:58:21;;;;;;;7.53;3.60;;;19.80;58.50;;;;;;6120007;23;20447;-67
2022/03/24 11:00:52;;;;;;;6.57;3.53;;;20.10;57.00;;;;;;6119363;23;20425;-67
2022/03/24 11:03:21;;;;;;;6.60;3.40;;;20.10;52.20;;;;;;6095309;23;20410;-67
2022/03/24 11:05:48;;;;;;;8.30;3.23;;;20.30;54.80;;;;;;6120362;23;20856;-66
2022/03/24 11:08:19;;;;;;;6.07;3.67;;;20.40;53.50;;;;;;6120362;23;20418;-67
2022/03/24 11:10:48;;;;;;;6.77;3.80;;;20.60;53.30;;;;;;6120087;23;20421;-67
2022/03/24 11:13:26;;;;;;;9.33;3.77;;;20.40;53.30;;;;;;6120071;23;20479;-67
2022/03/24 11:15:53;;;;;;;7.43;3.93;;;20.80;53.00;;;;;;6120055;23;20405;-67
2022/03/24 11:18:24;;;;;;;7.50;3.97;;;20.80;53.70;;;;;;6119922;23;20413;-66
2022/03/24 11:20:51;;;;;;;4.00;2.83;;;21.20;54.40;;;;;;6120114;23;20401;-67
2022/03/24 11:23:35;;;;;;;7.00;4.10;;;21.60;54.90;;;;;;6119923;23;20950;-67
2022/03/24 11:26:04;;;;;;;7.37;3.67;;;21.80;53.20;;;;;;6120222;23;20485;-67
2022/03/24 11:28:35;;;;;;;5.37;3.80;;;22.00;54.60;;;;;;6119923;23;20455;-67
2022/03/24 11:31:08;;;;;;;8.00;4.73;;;22.20;54.70;;;;;;6120672;23;20452;-67
2022/03/24 11:33:44;;;;;;;9.77;4.83;;;22.20;54.90;;;;;;6120212;23;20409;-67
2022/03/24 11:36:12;;;;;;;11.03;5.47;;;22.60;54.60;;;;;;6119937;23;20749;-67
2022/03/24 11:38:40;;;;;;;5.20;3.33;;;22.70;55.00;;;;;;6120952;23;20475;-66
2022/03/24 11:41:13;;;;;;;8.27;3.97;;;22.90;55.60;;;;;;6121021;23;20433;-66
2022/03/24 11:43:45;;;;;;;12.37;4.90;;;23.10;54.40;;;;;;6121014;23;20902;-66
2022/03/24 11:46:17;;;;;;;8.63;4.40;;;23.30;53.40;;;;;;6121057;23;20436;-66
2022/03/24 11:48:45;;;;;;;12.07;5.83;;;23.20;52.60;;;;;;6120942;23;20770;-67
2022/03/24 11:51:20;;;;;;;9.27;5.10;;;22.90;51.70;;;;;;6120981;23;20487;-67
2022/03/24 11:54:02;;;;;;;11.50;4.53;;;23.00;53.60;;;;;;6121056;23;20402;-66
2022/03/24 11:56:29;;;;;;;12.67;4.77;;;23.20;51.90;;;;;;6120720;23;20408;-66
2022/03/24 11:59:21;;;;;;;10.93;4.60;;;23.30;52.70;;;;;;6120814;23;20402;-67
2022/03/24 12:02:10;;;;;;;7.50;4.37;;;23.60;54.70;;;;;;6120815;23;20398;-67
2022/03/24 12:04:46;;;;;;;8.33;4.87;;;23.90;53.40;;;;;;6120794;23;20936;-66
2022/03/24 12:07:17;;;;;;;9.83;4.83;;;23.90;53.60;;;;;;6120602;23;20429;-67
2022/03/24 12:10:01;;;;;;;13.17;5.87;;;23.80;54.30;;;;;;6095320;23;20398;-67
2022/03/24 12:12:29;;;;;;;9.33;4.83;;;24.00;54.50;;;;;;6120200;23;20500;-66
2022/03/24 12:14:58;;;;;;;7.10;3.93;;;23.90;53.30;;;;;;6120747;23;20475;-66
2022/03/24 12:17:30;;;;;;;10.37;4.27;;;24.00;55.20;;;;;;6120963;23;20425;-66
2022/03/24 12:20:00;;;;;;;11.77;4.07;;;24.20;53.10;;;;;;6120861;23;20408;-66
2022/03/24 12:22:38;;;;;;;9.13;4.80;;;24.40;53.80;;;;;;6130242;23;20541;-67
2022/03/24 12:25:26;;;;;;;8.47;4.40;;;24.50;50.40;;;;;;6120871;23;20401;-67
2022/03/24 12:28:03;;;;;;;8.90;4.60;;;24.50;51.70;;;;;;6120602;23;20457;-66
2022/03/24 12:30:43;;;;;;;12.00;5.63;;;24.80;51.40;;;;;;6120445;23;20401;-67
2022/03/24 12:33:13;;;;;;;7.60;4.33;;;24.70;50.90;;;;;;6120282;23;20406;-67
2022/03/24 12:35:44;;;;;;;13.50;5.27;;;24.80;49.70;;;;;;6120478;23;20459;-67
2022/03/24 12:38:43;;;;;;;7.90;4.20;;;25.00;51.40;;;;;;6120577;23;20728;-66
2022/03/24 12:41:21;;;;;;;11.60;5.20;;;;;;;;;;6120636;23;20445;-66
2022/03/24 12:43:53;;;;;;;14.63;4.90;;;25.40;50.30;;;;;;6119991;23;20404;-67
2022/03/24 12:46:33;;;;;;;11.87;4.73;;;25.40;51.30;;;;;;6120497;23;20410;-66
2022/03/24 12:49:08;;;;;;;9.53;4.70;;;25.40;52.40;;;;;;6129444;23;20428;-67
2022/03/24 12:51:50;;;;;;;11.33;5.30;;;25.50;49.30;;;;;;6094631;23;21013;-66
2022/03/24 12:54:19;;;;;;;11.53;5.13;;;25.50;47.90;;;;;;6119981;23;20409;-66
2022/03/24 12:56:47;;;;;;;10.47;4.83;;;25.50;48.40;;;;;;6120169;23;20421;-65
2022/03/24 12:59:14;;;;;;;8.17;4.10;;;25.70;47.40;;;;;;6120140;23;20402;-65
2022/03/24 13:01:41;;;;;;;13.77;4.80;;;25.60;47.10;;;;;;6120367;23;20448;-65
2022/03/24 13:04:10;;;;;;;17.63;5.40;;;25.90;48.30;;;;;;6120530;23;20531;-65
2022/03/24 13:06:39;;;;;;;12.87;5.77;;;25.70;46.10;;;;;;6120483;23;20477;-65